createdAt,value
2018-07-24T00:00:45.056Z,21.17
2018-07-24T00:01:45.120Z,21.12
2018-07-24T00:02:45.184Z,21.17
2018-07-24T00:03:45.248Z,21.12
2018-07-24T00:04:45.317Z,21.12
2018-07-24T00:05:45.397Z,21.15
2018-07-24T00:06:45.448Z,21.07
2018-07-24T00:07:45.516Z,21.15
2018-07-24T00:08:45.592Z,21.14
2018-07-24T00:09:45.648Z,21.15
2018-07-24T00:10:45.720Z,21.09
2018-07-24T00:11:45.792Z,21.17
2018-07-24T00:12:45.848Z,21.05
2018-07-24T00:13:45.917Z,21.15
2018-07-24T00:14:45.980Z,21.12
2018-07-24T00:15:46.056Z,21.14
2018-07-24T00:16:46.121Z,21.09
2018-07-24T00:17:46.184Z,21.15
2018-07-24T00:18:46.249Z,21.06
2018-07-24T00:19:46.312Z,21.09
2018-07-24T00:20:46.388Z,21.05
2018-07-24T00:21:46.453Z,21.06
2018-07-24T00:22:46.513Z,21.14
2018-07-24T00:23:46.585Z,21.12
2018-07-24T00:24:46.653Z,21.09
2018-07-24T00:25:46.720Z,21.09
2018-07-24T00:26:46.789Z,21.11
2018-07-24T00:27:46.845Z,21.11
2018-07-24T00:28:46.913Z,21.07
2018-07-24T00:29:46.981Z,21.02
2018-07-24T00:30:47.053Z,20.96
2018-07-24T00:31:47.121Z,21.00
2018-07-24T00:32:47.180Z,20.97
2018-07-24T00:33:47.245Z,20.95
2018-07-24T00:34:47.313Z,20.92
2018-07-24T00:35:47.533Z,20.99
2018-07-24T00:36:47.449Z,20.82
2018-07-24T00:37:47.513Z,20.88
2018-07-24T00:38:47.576Z,20.85
2018-07-24T00:39:47.645Z,20.88
2018-07-24T00:40:47.717Z,20.82
2018-07-24T00:41:47.793Z,20.80
2018-07-24T00:42:47.845Z,20.85
2018-07-24T00:43:47.909Z,20.81
2018-07-24T00:44:47.981Z,20.82
2018-07-24T00:45:48.050Z,20.84
2018-07-24T00:46:48.117Z,20.78
2018-07-24T00:47:48.177Z,20.81
2018-07-24T00:48:48.241Z,20.84
2018-07-24T00:49:48.309Z,20.75
2018-07-24T00:50:48.494Z,20.74
2018-07-24T00:51:48.442Z,20.69
2018-07-24T00:52:48.509Z,20.69
2018-07-24T00:53:48.578Z,20.72
2018-07-24T00:54:48.642Z,20.63
2018-07-24T00:55:48.722Z,20.69
2018-07-24T00:56:48.802Z,20.60
2018-07-24T00:57:48.846Z,20.60
2018-07-24T00:58:48.906Z,20.62
2018-07-24T00:59:48.981Z,20.62
2018-07-24T01:00:49.051Z,20.51
2018-07-24T01:01:49.117Z,20.47
2018-07-24T01:02:49.178Z,20.48
2018-07-24T01:03:49.238Z,20.47
2018-07-24T01:04:49.306Z,20.37
2018-07-24T01:05:49.378Z,20.37
2018-07-24T01:06:49.442Z,20.36
2018-07-24T01:07:49.502Z,20.43
2018-07-24T01:08:49.574Z,20.32
2018-07-24T01:09:49.638Z,20.36
2018-07-24T01:10:49.715Z,20.32
2018-07-24T01:11:49.810Z,20.29
2018-07-24T01:12:49.835Z,20.37
2018-07-24T01:13:49.906Z,20.28
2018-07-24T01:14:49.971Z,20.31
2018-07-24T01:15:50.045Z,20.40
2018-07-24T01:16:50.107Z,20.36
2018-07-24T01:17:50.166Z,20.36
2018-07-24T01:18:50.234Z,20.39
2018-07-24T01:19:50.299Z,20.29
2018-07-24T01:20:50.388Z,20.34
2018-07-24T01:21:50.439Z,20.37
2018-07-24T01:22:50.500Z,20.31
2018-07-24T01:23:50.567Z,20.37
2018-07-24T01:24:50.631Z,20.36
2018-07-24T01:25:50.711Z,20.36
2018-07-24T01:26:50.771Z,20.31
2018-07-24T01:27:50.831Z,20.36
2018-07-24T01:28:50.896Z,20.29
2018-07-24T01:29:50.964Z,20.31
2018-07-24T01:30:51.035Z,20.37
2018-07-24T01:31:51.104Z,20.32
2018-07-24T01:32:51.161Z,20.39
2018-07-24T01:33:51.227Z,20.31
2018-07-24T01:34:51.295Z,20.29
2018-07-24T01:35:51.368Z,20.36
2018-07-24T01:36:51.431Z,20.29
2018-07-24T01:37:51.500Z,20.24
2018-07-24T01:38:51.560Z,20.22
2018-07-24T01:39:51.627Z,20.19
2018-07-24T01:40:51.700Z,20.22
2018-07-24T01:41:51.764Z,20.11
2018-07-24T01:42:51.824Z,20.14
2018-07-24T01:43:51.888Z,20.07
2018-07-24T01:44:51.960Z,20.03
2018-07-24T01:45:52.028Z,20.00
2018-07-24T01:46:52.097Z,20.02
2018-07-24T01:47:52.156Z,19.92
2018-07-24T01:48:52.220Z,19.99
2018-07-24T01:49:52.289Z,19.94
2018-07-24T01:50:52.360Z,19.96
2018-07-24T01:51:52.428Z,20.00
2018-07-24T01:52:52.487Z,19.91
2018-07-24T01:53:52.552Z,19.88
2018-07-24T01:54:52.616Z,19.95
2018-07-24T01:55:52.692Z,19.92
2018-07-24T01:56:52.759Z,19.89
2018-07-24T01:57:52.816Z,19.96
2018-07-24T01:58:52.884Z,19.89
2018-07-24T01:59:52.948Z,19.99
2018-07-24T02:00:53.021Z,20.00
2018-07-24T02:01:53.092Z,19.99
2018-07-24T02:02:53.148Z,19.96
2018-07-24T02:03:53.212Z,20.04
2018-07-24T02:04:53.284Z,19.91
2018-07-24T02:05:53.352Z,20.00
2018-07-24T02:06:53.416Z,20.03
2018-07-24T02:07:53.477Z,20.00
2018-07-24T02:08:53.545Z,20.00
2018-07-24T02:09:53.609Z,20.00
2018-07-24T02:10:53.681Z,19.91
2018-07-24T02:11:53.754Z,19.88
2018-07-24T02:12:53.810Z,19.92
2018-07-24T02:13:53.873Z,19.99
2018-07-24T02:14:53.941Z,19.94
2018-07-24T02:15:54.017Z,19.91
2018-07-24T02:16:54.077Z,19.86
2018-07-24T02:17:54.137Z,19.86
2018-07-24T02:18:54.205Z,19.92
2018-07-24T02:19:54.295Z,19.89
2018-07-24T02:20:54.341Z,19.85
2018-07-24T02:21:54.410Z,19.92
2018-07-24T02:22:54.473Z,20.00
2018-07-24T02:23:54.534Z,19.99
2018-07-24T02:24:54.602Z,19.91
2018-07-24T02:25:54.769Z,19.95
2018-07-24T02:26:54.738Z,20.06
2018-07-24T02:27:54.797Z,19.95
2018-07-24T02:28:54.866Z,20.00
2018-07-24T02:29:54.933Z,20.03
2018-07-24T02:30:55.006Z,20.00
2018-07-24T02:31:55.111Z,20.02
2018-07-24T02:32:55.138Z,20.00
2018-07-24T02:33:55.199Z,19.96
2018-07-24T02:34:55.262Z,20.00
2018-07-24T02:35:55.506Z,20.00
2018-07-24T02:36:55.394Z,20.02
2018-07-24T02:37:55.458Z,20.02
2018-07-24T02:38:55.526Z,20.02
2018-07-24T02:39:55.590Z,20.00
2018-07-24T02:40:55.663Z,19.99
2018-07-24T02:41:55.731Z,20.03
2018-07-24T02:42:55.799Z,20.03
2018-07-24T02:43:55.859Z,19.99
2018-07-24T02:44:55.922Z,20.10
2018-07-24T02:45:55.994Z,19.91
2018-07-24T02:46:56.058Z,20.07
2018-07-24T02:47:56.127Z,19.99
2018-07-24T02:48:56.186Z,20.00
2018-07-24T02:49:56.253Z,20.00
2018-07-24T02:50:56.472Z,19.92
2018-07-24T02:51:56.383Z,19.96
2018-07-24T02:52:56.447Z,19.86
2018-07-24T02:53:56.515Z,19.92
2018-07-24T02:54:56.578Z,19.94
2018-07-24T02:55:56.655Z,19.82
2018-07-24T02:56:56.720Z,19.92
2018-07-24T02:57:56.779Z,19.82
2018-07-24T02:58:56.847Z,19.77
2018-07-24T02:59:56.907Z,19.79
2018-07-24T03:00:56.999Z,19.74
2018-07-24T03:01:57.047Z,19.74
2018-07-24T03:02:57.108Z,19.77
2018-07-24T03:03:57.173Z,19.67
2018-07-24T03:04:57.240Z,19.67
2018-07-24T03:05:57.348Z,19.66
2018-07-24T03:06:57.380Z,19.66
2018-07-24T03:07:57.435Z,19.66
2018-07-24T03:08:57.503Z,19.54
2018-07-24T03:09:57.567Z,19.54
2018-07-24T03:10:57.644Z,19.47
2018-07-24T03:11:57.748Z,19.48
2018-07-24T03:12:57.767Z,19.41
2018-07-24T03:13:57.834Z,19.40
2018-07-24T03:14:57.900Z,19.39
2018-07-24T03:15:57.977Z,19.34
2018-07-24T03:16:58.036Z,19.37
2018-07-24T03:17:58.096Z,19.39
2018-07-24T03:18:58.163Z,19.29
2018-07-24T03:19:58.228Z,19.33
2018-07-24T03:20:58.448Z,19.16
2018-07-24T03:21:58.361Z,19.19
2018-07-24T03:22:58.424Z,19.21
2018-07-24T03:23:58.503Z,19.26
2018-07-24T03:24:58.556Z,19.27
2018-07-24T03:25:58.632Z,19.18
2018-07-24T03:26:58.696Z,19.19
2018-07-24T03:27:58.752Z,19.12
2018-07-24T03:28:58.820Z,19.09
2018-07-24T03:29:58.884Z,19.16
2018-07-24T03:30:58.966Z,19.18
2018-07-24T03:31:59.024Z,19.18
2018-07-24T03:32:59.084Z,19.14
2018-07-24T03:33:59.148Z,19.12
2018-07-24T03:34:59.216Z,19.08
2018-07-24T03:35:59.596Z,19.11
2018-07-24T03:36:59.346Z,19.09
2018-07-24T03:37:59.412Z,19.04
2018-07-24T03:38:59.476Z,19.04
2018-07-24T03:39:59.550Z,19.08
2018-07-24T03:40:59.617Z,19.07
2018-07-24T03:41:59.681Z,19.04
2018-07-24T03:42:59.746Z,19.02
2018-07-24T03:43:59.806Z,18.96
2018-07-24T03:44:59.879Z,18.98
2018-07-24T03:45:59.944Z,19.04
2018-07-24T03:47:00.014Z,19.12
2018-07-24T03:48:00.070Z,19.08
2018-07-24T03:49:00.152Z,19.18
2018-07-24T03:50:00.201Z,19.18
2018-07-24T03:51:00.281Z,19.22
2018-07-24T03:52:00.334Z,19.27
2018-07-24T03:53:00.397Z,19.24
2018-07-24T03:54:00.469Z,19.19
2018-07-24T03:55:00.529Z,19.18
2018-07-24T03:56:00.603Z,19.26
2018-07-24T03:57:00.673Z,19.30
2018-07-24T03:58:00.790Z,19.30
2018-07-24T03:59:00.808Z,19.33
2018-07-24T04:00:00.857Z,19.34
2018-07-24T04:01:00.930Z,19.33
2018-07-24T04:02:00.998Z,19.36
2018-07-24T04:03:01.058Z,19.39
2018-07-24T04:04:01.121Z,19.34
2018-07-24T04:05:01.185Z,19.36
2018-07-24T04:06:01.569Z,19.41
2018-07-24T04:07:01.318Z,19.45
2018-07-24T04:08:01.386Z,19.31
2018-07-24T04:09:01.450Z,19.49
2018-07-24T04:10:01.520Z,19.47
2018-07-24T04:11:01.590Z,19.45
2018-07-24T04:12:01.660Z,19.44
2018-07-24T04:13:01.715Z,19.40
2018-07-24T04:14:01.777Z,19.44
2018-07-24T04:15:01.846Z,19.44
2018-07-24T04:16:01.918Z,19.36
2018-07-24T04:17:01.986Z,19.37
2018-07-24T04:18:02.046Z,19.44
2018-07-24T04:19:02.106Z,19.45
2018-07-24T04:20:02.178Z,19.44
2018-07-24T04:21:02.515Z,19.52
2018-07-24T04:22:02.306Z,19.45
2018-07-24T04:23:02.370Z,19.55
2018-07-24T04:24:02.434Z,19.52
2018-07-24T04:25:02.506Z,19.63
2018-07-24T04:26:02.574Z,19.59
2018-07-24T04:27:02.647Z,19.62
2018-07-24T04:28:02.701Z,19.63
2018-07-24T04:29:02.766Z,19.69
2018-07-24T04:30:02.831Z,19.76
2018-07-24T04:31:02.905Z,19.71
2018-07-24T04:32:02.971Z,19.77
2018-07-24T04:33:03.030Z,19.76
2018-07-24T04:34:03.095Z,19.73
2018-07-24T04:35:03.162Z,19.82
2018-07-24T04:36:03.243Z,19.81
2018-07-24T04:37:03.286Z,19.81
2018-07-24T04:38:03.358Z,19.85
2018-07-24T04:39:03.423Z,19.95
2018-07-24T04:40:03.516Z,19.85
2018-07-24T04:41:03.560Z,19.91
2018-07-24T04:42:03.627Z,19.99
2018-07-24T04:43:03.687Z,19.94
2018-07-24T04:44:03.755Z,20.02
2018-07-24T04:45:03.826Z,20.09
2018-07-24T04:46:03.890Z,20.02
2018-07-24T04:47:03.959Z,20.00
2018-07-24T04:48:04.019Z,20.14
2018-07-24T04:49:04.088Z,20.14
2018-07-24T04:50:04.151Z,20.14
2018-07-24T04:51:04.239Z,20.16
2018-07-24T04:52:04.278Z,20.29
2018-07-24T04:53:04.347Z,20.21
2018-07-24T04:54:04.411Z,20.29
2018-07-24T04:55:04.483Z,20.22
2018-07-24T04:56:04.551Z,20.37
2018-07-24T04:57:04.622Z,20.36
2018-07-24T04:58:04.675Z,20.36
2018-07-24T04:59:04.743Z,20.36
2018-07-24T05:00:04.807Z,20.36
2018-07-24T05:01:04.883Z,20.44
2018-07-24T05:02:04.951Z,20.50
2018-07-24T05:03:05.007Z,20.58
2018-07-24T05:04:05.071Z,20.44
2018-07-24T05:05:05.143Z,20.59
2018-07-24T05:06:05.220Z,20.56
2018-07-24T05:07:05.312Z,20.60
2018-07-24T05:08:05.347Z,20.62
2018-07-24T05:09:05.404Z,20.69
2018-07-24T05:10:05.472Z,20.69
2018-07-24T05:11:05.544Z,20.63
2018-07-24T05:12:05.608Z,20.75
2018-07-24T05:13:05.668Z,20.66
2018-07-24T05:14:05.735Z,20.69
2018-07-24T05:15:05.800Z,20.78
2018-07-24T05:16:05.872Z,20.84
2018-07-24T05:17:05.940Z,20.85
2018-07-24T05:18:06.000Z,20.84
2018-07-24T05:19:06.064Z,20.93
2018-07-24T05:20:06.132Z,20.88
2018-07-24T05:21:06.212Z,21.00
2018-07-24T05:22:06.264Z,20.99
2018-07-24T05:23:06.340Z,20.92
2018-07-24T05:24:06.396Z,20.93
2018-07-24T05:25:06.464Z,21.06
2018-07-24T05:26:06.546Z,21.05
2018-07-24T05:27:06.604Z,21.11
2018-07-24T05:28:06.656Z,21.17
2018-07-24T05:29:06.728Z,21.05
2018-07-24T05:30:06.792Z,21.20
2018-07-24T05:31:06.868Z,21.20
2018-07-24T05:32:06.932Z,21.22
2018-07-24T05:33:07.013Z,21.15
2018-07-24T05:34:07.060Z,21.32
2018-07-24T05:35:07.124Z,21.29
2018-07-24T05:36:07.204Z,21.33
2018-07-24T05:37:07.257Z,21.32
2018-07-24T05:38:07.324Z,21.43
2018-07-24T05:39:07.393Z,21.43
2018-07-24T05:40:07.457Z,21.46
2018-07-24T05:41:07.533Z,21.46
2018-07-24T05:42:07.597Z,21.61
2018-07-24T05:43:07.663Z,21.62
2018-07-24T05:44:07.728Z,21.58
2018-07-24T05:45:07.796Z,21.67
2018-07-24T05:46:07.892Z,21.77
2018-07-24T05:47:07.945Z,21.91
2018-07-24T05:48:07.993Z,21.76
2018-07-24T05:49:08.061Z,21.91
2018-07-24T05:50:08.123Z,21.95
2018-07-24T05:51:08.204Z,21.98
2018-07-24T05:52:08.253Z,22.02
2018-07-24T05:53:08.321Z,22.11
2018-07-24T05:54:08.397Z,22.06
2018-07-24T05:55:08.511Z,22.06
2018-07-24T05:56:08.531Z,22.11
2018-07-24T05:57:08.593Z,22.15
2018-07-24T05:58:08.653Z,22.15
2018-07-24T05:59:08.721Z,22.13
2018-07-24T06:00:08.793Z,22.26
2018-07-24T06:01:08.861Z,22.25
2018-07-24T06:02:08.930Z,22.38
2018-07-24T06:03:08.990Z,22.32
2018-07-24T06:04:09.053Z,22.36
2018-07-24T06:05:09.122Z,22.51
2018-07-24T06:06:09.294Z,22.53
2018-07-24T06:07:09.258Z,22.50
2018-07-24T06:08:09.322Z,22.55
2018-07-24T06:09:09.391Z,22.60
2018-07-24T06:10:09.452Z,22.59
2018-07-24T06:11:09.580Z,22.68
2018-07-24T06:12:09.594Z,22.65
2018-07-24T06:13:09.668Z,22.68
2018-07-24T06:14:09.721Z,22.78
2018-07-24T06:15:09.794Z,22.83
2018-07-24T06:16:09.866Z,22.83
2018-07-24T06:17:09.931Z,22.93
2018-07-24T06:18:09.998Z,22.93
2018-07-24T06:19:10.058Z,23.03
2018-07-24T06:20:10.123Z,23.00
2018-07-24T06:21:10.210Z,23.12
2018-07-24T06:22:10.258Z,23.06
2018-07-24T06:23:10.329Z,23.12
2018-07-24T06:24:10.394Z,23.15
2018-07-24T06:25:10.462Z,23.20
2018-07-24T06:26:10.534Z,23.23
2018-07-24T06:27:10.598Z,23.24
2018-07-24T06:28:10.658Z,23.32
2018-07-24T06:29:10.730Z,23.39
2018-07-24T06:30:10.795Z,23.46
2018-07-24T06:31:10.866Z,23.51
2018-07-24T06:32:10.934Z,23.62
2018-07-24T06:33:10.994Z,23.87
2018-07-24T06:34:11.062Z,24.36
2018-07-24T06:35:11.131Z,25.22
2018-07-24T06:36:11.211Z,26.26
2018-07-24T06:37:11.267Z,26.99
2018-07-24T06:38:11.338Z,27.78
2018-07-24T06:39:11.406Z,28.30
2018-07-24T06:40:11.475Z,28.85
2018-07-24T06:41:11.551Z,29.39
2018-07-24T06:42:11.622Z,29.97
2018-07-24T06:43:11.686Z,30.50
2018-07-24T06:44:11.821Z,30.87
2018-07-24T06:45:11.831Z,31.22
2018-07-24T06:46:11.927Z,31.55
2018-07-24T06:47:12.003Z,31.97
2018-07-24T06:48:12.058Z,32.12
2018-07-24T06:49:12.139Z,32.38
2018-07-24T06:50:12.203Z,32.75
2018-07-24T06:51:12.323Z,33.09
2018-07-24T06:52:12.350Z,33.23
2018-07-24T06:53:12.427Z,33.27
2018-07-24T06:54:12.533Z,33.39
2018-07-24T06:55:12.605Z,33.59
2018-07-24T06:56:12.666Z,33.86
2018-07-24T06:57:12.742Z,34.01
2018-07-24T06:58:12.827Z,34.06
2018-07-24T06:59:12.895Z,34.25
2018-07-24T07:00:12.975Z,34.47
2018-07-24T07:01:13.054Z,34.61
2018-07-24T07:02:13.230Z,34.70
2018-07-24T07:03:13.207Z,34.61
2018-07-24T07:04:13.302Z,34.60
2018-07-24T07:05:13.388Z,34.61
2018-07-24T07:06:13.455Z,34.62
2018-07-24T07:07:13.539Z,34.86
2018-07-24T07:08:13.603Z,35.07
2018-07-24T07:09:13.690Z,35.31
2018-07-24T07:10:13.811Z,35.41
2018-07-24T07:11:13.851Z,35.48
2018-07-24T07:12:13.930Z,35.51
2018-07-24T07:13:14.044Z,35.61
2018-07-24T07:14:14.090Z,35.74
2018-07-24T07:15:14.163Z,35.82
2018-07-24T07:16:14.277Z,36.01
2018-07-24T07:17:14.323Z,36.25
2018-07-24T07:18:14.408Z,36.24
2018-07-24T07:19:14.491Z,36.47
2018-07-24T07:20:14.567Z,36.72
2018-07-24T07:21:14.655Z,36.81
2018-07-24T07:22:14.735Z,36.49
2018-07-24T07:23:14.820Z,36.80
2018-07-24T07:24:14.891Z,36.83
2018-07-24T07:25:14.975Z,36.89
2018-07-24T07:26:15.096Z,36.70
2018-07-24T07:27:15.157Z,36.83
2018-07-24T07:28:15.219Z,36.73
2018-07-24T07:29:15.363Z,36.72
2018-07-24T07:30:15.385Z,36.95
2018-07-24T07:31:15.471Z,36.96
2018-07-24T07:32:15.605Z,36.79
2018-07-24T07:33:15.628Z,36.80
2018-07-24T07:34:15.707Z,36.88
2018-07-24T07:35:15.792Z,36.55
2018-07-24T07:36:15.890Z,36.84
2018-07-24T07:37:15.960Z,37.02
2018-07-24T07:38:16.040Z,36.88
2018-07-24T07:39:16.209Z,37.02
2018-07-24T07:40:16.200Z,37.13
2018-07-24T07:41:16.396Z,37.20
2018-07-24T07:42:16.364Z,37.26
2018-07-24T07:43:16.444Z,37.56
2018-07-24T07:44:16.536Z,37.74
2018-07-24T07:45:16.640Z,37.97
2018-07-24T07:46:16.704Z,38.06
2018-07-24T07:47:16.792Z,38.26
2018-07-24T07:48:16.856Z,38.30
2018-07-24T07:49:16.936Z,38.52
2018-07-24T07:50:17.025Z,38.40
2018-07-24T07:51:17.256Z,38.34
2018-07-24T07:52:17.188Z,38.05
2018-07-24T07:53:17.269Z,37.99
2018-07-24T07:54:17.348Z,38.06
2018-07-24T07:55:17.433Z,38.39
2018-07-24T07:56:17.520Z,38.54
2018-07-24T07:57:17.621Z,38.84
2018-07-24T07:58:17.944Z,38.96
2018-07-24T07:59:17.761Z,39.02
2018-07-24T08:00:17.845Z,39.12
2018-07-24T08:01:17.932Z,39.03
2018-07-24T08:02:18.017Z,38.96
2018-07-24T08:03:18.106Z,39.06
2018-07-24T08:04:18.281Z,39.25
2018-07-24T08:05:18.257Z,38.96
2018-07-24T08:06:18.495Z,38.77
2018-07-24T08:07:18.421Z,38.64
2018-07-24T08:08:18.519Z,38.67
2018-07-24T08:09:18.585Z,38.55
2018-07-24T08:10:18.673Z,38.65
2018-07-24T08:11:18.757Z,38.73
2018-07-24T08:12:18.880Z,38.92
2018-07-24T08:13:18.916Z,38.87
2018-07-24T08:14:18.998Z,38.83
2018-07-24T08:15:19.086Z,38.42
2018-07-24T08:16:19.314Z,38.68
2018-07-24T08:17:19.245Z,38.77
2018-07-24T08:18:19.325Z,38.84
2018-07-24T08:19:19.410Z,38.91
2018-07-24T08:20:19.490Z,39.00
2018-07-24T08:21:19.578Z,39.14
2018-07-24T08:22:19.708Z,39.24
2018-07-24T08:23:19.738Z,39.26
2018-07-24T08:24:19.818Z,39.59
2018-07-24T08:25:19.906Z,39.78
2018-07-24T08:26:19.990Z,40.00
2018-07-24T08:27:20.078Z,40.08
2018-07-24T08:28:20.147Z,40.05
2018-07-24T08:29:20.230Z,40.04
2018-07-24T08:30:20.315Z,39.81
2018-07-24T08:31:20.402Z,39.44
2018-07-24T08:32:20.483Z,39.33
2018-07-24T08:33:20.562Z,39.30
2018-07-24T08:34:20.642Z,38.83
2018-07-24T08:35:20.727Z,38.89
2018-07-24T08:36:20.810Z,39.06
2018-07-24T08:37:20.895Z,38.99
2018-07-24T08:38:20.970Z,39.02
2018-07-24T08:39:21.050Z,39.31
2018-07-24T08:40:21.140Z,39.55
2018-07-24T08:41:21.463Z,40.12
2018-07-24T08:42:21.299Z,40.51
2018-07-24T08:43:21.379Z,40.69
2018-07-24T08:44:21.463Z,41.03
2018-07-24T08:45:21.543Z,40.77
2018-07-24T08:46:21.635Z,40.66
2018-07-24T08:47:21.720Z,40.59
2018-07-24T08:48:21.795Z,40.49
2018-07-24T08:49:21.881Z,40.58
2018-07-24T08:50:21.964Z,40.18
2018-07-24T08:51:22.051Z,40.00
2018-07-24T08:52:22.175Z,40.00
2018-07-24T08:53:22.440Z,39.71
2018-07-24T08:54:22.455Z,39.51
2018-07-24T08:55:22.719Z,39.65
2018-07-24T08:56:22.579Z,39.71
2018-07-24T08:57:22.540Z,39.80
2018-07-24T08:58:22.620Z,39.71
2018-07-24T08:59:22.704Z,39.74
2018-07-24T09:00:22.784Z,39.78
2018-07-24T09:01:22.884Z,39.67
2018-07-24T09:02:22.967Z,39.70
2018-07-24T09:03:23.039Z,39.83
2018-07-24T09:04:23.114Z,39.81
2018-07-24T09:05:23.196Z,39.87
2018-07-24T09:06:23.428Z,40.05
2018-07-24T09:07:23.363Z,40.08
2018-07-24T09:08:23.448Z,39.36
2018-07-24T09:09:23.520Z,39.22
2018-07-24T09:10:23.608Z,39.15
2018-07-24T09:11:23.692Z,39.15
2018-07-24T09:12:23.772Z,39.40
2018-07-24T09:13:23.844Z,39.63
2018-07-24T09:14:23.940Z,39.46
2018-07-24T09:15:24.054Z,39.55
2018-07-24T09:16:24.092Z,39.60
2018-07-24T09:17:24.184Z,39.60
2018-07-24T09:18:24.252Z,39.48
2018-07-24T09:19:24.334Z,39.03
2018-07-24T09:20:24.408Z,39.17
2018-07-24T09:21:24.498Z,39.33
2018-07-24T09:22:24.591Z,39.34
2018-07-24T09:23:24.660Z,39.29
2018-07-24T09:24:24.739Z,39.48
2018-07-24T09:25:24.816Z,39.55
2018-07-24T09:26:24.896Z,39.49
2018-07-24T09:27:24.984Z,39.26
2018-07-24T09:28:25.060Z,39.25
2018-07-24T09:29:25.137Z,39.18
2018-07-24T09:30:25.221Z,39.02
2018-07-24T09:31:25.301Z,39.03
2018-07-24T09:32:25.381Z,39.18
2018-07-24T09:33:25.618Z,39.02
2018-07-24T09:34:25.544Z,39.18
2018-07-24T09:35:25.616Z,39.37
2018-07-24T09:36:25.697Z,39.52
2018-07-24T09:37:25.777Z,39.40
2018-07-24T09:38:25.864Z,39.60
2018-07-24T09:39:25.945Z,39.59
2018-07-24T09:40:26.039Z,39.75
2018-07-24T09:41:26.099Z,39.78
2018-07-24T09:42:26.177Z,39.62
2018-07-24T09:43:26.273Z,39.52
2018-07-24T09:44:26.333Z,39.58
2018-07-24T09:45:26.413Z,39.58
2018-07-24T09:46:26.501Z,39.72
2018-07-24T09:47:26.578Z,39.63
2018-07-24T09:48:26.658Z,39.70
2018-07-24T09:49:26.737Z,39.56
2018-07-24T09:50:26.849Z,39.37
2018-07-24T09:51:26.905Z,39.31
2018-07-24T09:52:26.979Z,39.22
2018-07-24T09:53:27.054Z,38.89
2018-07-24T09:54:27.136Z,38.84
2018-07-24T09:55:27.206Z,38.74
2018-07-24T09:56:27.309Z,38.86
2018-07-24T09:57:27.362Z,39.11
2018-07-24T09:58:27.465Z,38.91
2018-07-24T09:59:27.602Z,39.02
2018-07-24T10:00:27.597Z,38.84
2018-07-24T10:01:27.677Z,38.91
2018-07-24T10:02:27.758Z,39.09
2018-07-24T10:03:27.842Z,39.24
2018-07-24T10:04:27.922Z,39.17
2018-07-24T10:05:28.077Z,39.11
2018-07-24T10:06:28.074Z,38.87
2018-07-24T10:07:28.149Z,38.79
2018-07-24T10:08:28.230Z,38.68
2018-07-24T10:09:28.466Z,38.77
2018-07-24T10:10:28.385Z,38.83
2018-07-24T10:11:28.462Z,38.76
2018-07-24T10:12:28.542Z,38.65
2018-07-24T10:13:28.639Z,38.42
2018-07-24T10:14:28.702Z,38.54
2018-07-24T10:15:28.798Z,38.52
2018-07-24T10:16:28.886Z,38.50
2018-07-24T10:17:28.930Z,38.55
2018-07-24T10:18:29.010Z,38.61
2018-07-24T10:19:29.102Z,38.50
2018-07-24T10:20:29.162Z,38.46
2018-07-24T10:21:29.242Z,38.42
2018-07-24T10:22:29.322Z,38.34
2018-07-24T10:23:29.398Z,38.39
2018-07-24T10:24:29.546Z,38.17
2018-07-24T10:25:29.559Z,38.20
2018-07-24T10:26:29.630Z,38.31
2018-07-24T10:27:29.706Z,38.23
2018-07-24T10:28:29.787Z,38.19
2018-07-24T10:29:29.875Z,37.80
2018-07-24T10:30:30.035Z,37.53
2018-07-24T10:31:30.019Z,37.44
2018-07-24T10:32:30.091Z,37.55
2018-07-24T10:33:30.171Z,37.67
2018-07-24T10:34:30.271Z,37.86
2018-07-24T10:35:30.346Z,37.90
2018-07-24T10:36:30.453Z,37.72
2018-07-24T10:37:30.479Z,37.84
2018-07-24T10:38:30.554Z,37.82
2018-07-24T10:39:30.639Z,37.83
2018-07-24T10:40:30.715Z,37.35
2018-07-24T10:41:30.787Z,37.18
2018-07-24T10:42:30.864Z,36.98
2018-07-24T10:43:30.940Z,37.08
2018-07-24T10:44:31.019Z,36.99
2018-07-24T10:45:31.095Z,37.02
2018-07-24T10:46:31.167Z,36.88
2018-07-24T10:47:31.243Z,36.86
2018-07-24T10:48:31.319Z,36.86
2018-07-24T10:49:31.406Z,36.95
2018-07-24T10:50:31.479Z,37.07
2018-07-24T10:51:31.552Z,37.21
2018-07-24T10:52:31.623Z,37.32
2018-07-24T10:53:31.703Z,37.39
2018-07-24T10:54:31.784Z,37.45
2018-07-24T10:55:31.875Z,36.96
2018-07-24T10:56:31.927Z,36.96
2018-07-24T10:57:32.004Z,36.86
2018-07-24T10:58:32.082Z,36.95
2018-07-24T10:59:32.180Z,36.89
2018-07-24T11:00:32.231Z,36.64
2018-07-24T11:01:32.307Z,36.62
2018-07-24T11:02:32.388Z,36.52
2018-07-24T11:03:32.464Z,36.52
2018-07-24T11:04:32.542Z,36.51
2018-07-24T11:05:32.631Z,36.31
2018-07-24T11:06:32.687Z,36.33
2018-07-24T11:07:32.763Z,36.36
2018-07-24T11:08:32.839Z,36.36
2018-07-24T11:09:32.928Z,36.40
2018-07-24T11:10:32.996Z,36.65
2018-07-24T11:11:33.066Z,36.70
2018-07-24T11:12:33.136Z,36.91
2018-07-24T11:13:33.215Z,36.70
2018-07-24T11:14:33.319Z,36.83
2018-07-24T11:15:33.364Z,36.73
2018-07-24T11:16:33.491Z,36.68
2018-07-24T11:17:33.511Z,36.83
2018-07-24T11:18:33.592Z,36.98
2018-07-24T11:19:33.672Z,36.74
2018-07-24T11:20:33.748Z,36.58
2018-07-24T11:21:33.815Z,36.59
2018-07-24T11:22:34.004Z,36.39
2018-07-24T11:23:33.972Z,36.17
2018-07-24T11:24:34.052Z,36.35
2018-07-24T11:25:34.126Z,36.33
2018-07-24T11:26:34.196Z,36.28
2018-07-24T11:27:34.265Z,36.30
2018-07-24T11:28:34.347Z,36.31
2018-07-24T11:29:34.528Z,36.39
2018-07-24T11:30:34.492Z,36.49
2018-07-24T11:31:34.564Z,36.43
2018-07-24T11:32:34.640Z,36.61
2018-07-24T11:33:34.727Z,36.68
2018-07-24T11:34:34.800Z,36.64
2018-07-24T11:35:34.959Z,36.67
2018-07-24T11:36:34.944Z,36.42
2018-07-24T11:37:35.021Z,36.18
2018-07-24T11:38:35.158Z,36.17
2018-07-24T11:39:35.204Z,36.30
2018-07-24T11:40:35.244Z,36.39
2018-07-24T11:41:35.324Z,36.43
2018-07-24T11:42:35.392Z,36.49
2018-07-24T11:43:35.469Z,36.79
2018-07-24T11:44:35.565Z,36.86
2018-07-24T11:45:35.629Z,37.13
2018-07-24T11:46:35.749Z,37.25
2018-07-24T11:47:35.772Z,37.28
2018-07-24T11:48:35.869Z,37.20
2018-07-24T11:49:35.933Z,37.10
2018-07-24T11:50:36.007Z,36.67
2018-07-24T11:51:36.137Z,36.35
2018-07-24T11:52:36.153Z,36.30
2018-07-24T11:53:36.227Z,36.18
2018-07-24T11:54:36.310Z,36.18
2018-07-24T11:55:36.369Z,36.00
2018-07-24T11:56:36.445Z,36.04
2018-07-24T11:57:36.530Z,36.27
2018-07-24T11:58:36.601Z,36.45
2018-07-24T11:59:36.681Z,36.80
2018-07-24T12:00:36.753Z,36.84
2018-07-24T12:01:36.821Z,36.79
2018-07-24T12:02:36.897Z,36.18
2018-07-24T12:03:37.008Z,36.40
2018-07-24T12:04:37.054Z,36.35
2018-07-24T12:05:37.133Z,36.47
2018-07-24T12:06:37.198Z,36.43
2018-07-24T12:07:37.274Z,36.52
2018-07-24T12:08:37.349Z,36.83
2018-07-24T12:09:37.430Z,36.99
2018-07-24T12:10:37.514Z,37.13
2018-07-24T12:11:37.603Z,37.10
2018-07-24T12:12:37.650Z,37.18
2018-07-24T12:13:37.726Z,37.10
2018-07-24T12:14:37.840Z,37.18
2018-07-24T12:15:37.885Z,37.17
2018-07-24T12:16:37.958Z,37.14
2018-07-24T12:17:38.022Z,36.99
2018-07-24T12:18:38.102Z,36.54
2018-07-24T12:19:38.205Z,36.74
2018-07-24T12:20:38.254Z,36.91
2018-07-24T12:21:38.330Z,37.01
2018-07-24T12:22:38.406Z,37.08
2018-07-24T12:23:38.478Z,37.08
2018-07-24T12:24:38.706Z,37.18
2018-07-24T12:25:38.638Z,37.18
2018-07-24T12:26:38.710Z,37.06
2018-07-24T12:27:38.782Z,37.10
2018-07-24T12:28:38.855Z,37.21
2018-07-24T12:29:38.935Z,37.29
2018-07-24T12:30:39.019Z,37.35
2018-07-24T12:31:39.087Z,37.32
2018-07-24T12:32:39.155Z,37.17
2018-07-24T12:33:39.227Z,37.35
2018-07-24T12:34:39.314Z,37.35
2018-07-24T12:35:39.539Z,37.40
2018-07-24T12:36:39.455Z,37.35
2018-07-24T12:37:39.531Z,37.07
2018-07-24T12:38:39.603Z,37.11
2018-07-24T12:39:39.689Z,37.25
2018-07-24T12:40:39.763Z,37.42
2018-07-24T12:41:39.839Z,37.28
2018-07-24T12:42:39.913Z,37.25
2018-07-24T12:43:40.063Z,37.32
2018-07-24T12:44:40.067Z,37.06
2018-07-24T12:45:40.160Z,37.21
2018-07-24T12:46:40.211Z,37.02
2018-07-24T12:47:40.287Z,37.06
2018-07-24T12:48:40.359Z,37.45
2018-07-24T12:49:40.435Z,37.53
2018-07-24T12:50:40.521Z,37.53
2018-07-24T12:51:40.599Z,37.77
2018-07-24T12:52:40.664Z,37.90
2018-07-24T12:53:40.744Z,37.96